Terminal Aerodrome Forecast
Issued by NWS Charleston, WV

Current Version | Previous Version | Text Only | Print | Product List | Glossary Off
Versions: 1 2 3 4 5 6 7 8 9 10 11 12 13 14 15 16 17 18 19 20 21 22 23 24

000
FTUS41 KRLX 240300 AAA
TAFHTS
TAF AMD
KHTS 240305Z 2403/2424 36006KT 2SM -SN BR OVC002
     FM240900 32005KT 4SM -SN BR BKN010
     FM241300 31005KT 6SM BR BKN010
     FM241700 26008KT P6SM SCT060=

USA.gov is the U.S. government's official web portal to all federal, state and local government web resources and services.